Terminal Aerodrome Forecast
Issued by NWS

Home | Current Version | Previous Version | Text Only | Print | Product List | Glossary On
Versions: 1 2 3 4 5 6 7 8 9 10 11 12 13 14 15 16 17 18 19 20 21 22
000
FTUS41 KOKX 282300
TAFSWF
TAF
KSWF 282340Z 2900/3006 36008KT P6SM SKC
     FM290300 VRB02KT P6SM FEW150
     FM292100 15005KT P6SM SCT025 BKN100
     FM300000 15005KT P6SM BKN025
     FM300300 15005KT 3SM -SN BKN015
      AMD NOT SKED=

USA.gov is the U.S. government's official web portal to all federal, state and local government web resources and services.